Time;durP1;ratioP1;P1;durP2;ratioP2;P2;SDS_P1;SDS_P2;PMS_P1;PMS_P2;Temp;Humidity;BMP_temperature;BMP_pressure;BME280_temperature;BME280_humidity;BME280_pressure;Samples;Min_cycle;Max_cycle;Signal;HPM_P1;HPM_P2
2024/03/02 00:00:22;;;;;;;0.80;0.35;;;;;;;17.35;50.30;99642.66;10452502;28;20103;-59
2024/03/02 00:05:22;;;;;;;0.70;0.40;;;;;;;17.34;51.70;99649.13;10452805;28;20121;-59
2024/03/02 00:10:29;;;;;;;1.23;0.50;;;;;;;17.36;50.76;99636.19;10451933;28;20120;-58
2024/03/02 00:15:46;;;;;;;0.90;0.40;;;;;;;17.37;51.59;99651.16;10452695;28;20862;-58
2024/03/02 00:20:46;;;;;;;1.33;0.50;;;;;;;17.32;51.38;99637.16;10451737;28;20031;-59
2024/03/02 00:25:48;;;;;;;0.70;0.40;;;;;;;17.35;51.36;99645.34;10451673;28;20499;-58
2024/03/02 00:31:05;;;;;;;1.33;0.60;;;;;;;17.35;51.76;99645.34;10451483;28;20388;-59
2024/03/02 00:36:06;;;;;;;1.35;0.60;;;;;;;17.33;51.46;99654.78;10451238;28;20032;-59
2024/03/02 00:41:07;;;;;;;1.25;0.45;;;;;;;17.35;51.61;99650.69;10449373;28;20074;-59
2024/03/02 00:46:08;;;;;;;1.30;0.57;;;;;;;17.35;50.96;99669.44;10451286;28;20070;-58
2024/03/02 00:51:08;;;;;;;1.10;0.65;;;;;;;17.35;51.74;99664.09;10450667;28;20020;-58
2024/03/02 00:56:14;;;;;;;0.87;0.37;;;;;;;17.34;51.14;99675.91;10441865;28;20040;-58
2024/03/02 01:01:15;;;;;;;0.93;0.50;;;;;;;17.36;50.83;99713.91;10450283;28;20287;-58
2024/03/02 01:06:16;;;;;;;0.82;0.40;;;;;;;17.34;51.77;99750.94;10439486;28;20033;-59
2024/03/02 01:11:18;;;;;;;1.15;0.50;;;;;;;17.33;51.32;99746.69;10448658;28;20037;-58
2024/03/02 01:16:18;;;;;;;2.50;1.00;;;;;;;17.37;51.15;99750.31;10438007;28;20025;-58
2024/03/02 01:21:18;;;;;;;0.70;0.30;;;;;;;17.36;50.60;99751.41;10449884;28;20025;-58
2024/03/02 01:26:19;;;;;;;1.85;0.60;;;;;;;17.39;50.75;99761.50;10450200;28;20028;-58
2024/03/02 01:31:19;;;;;;;1.10;0.40;;;;;;;17.40;50.30;99763.06;10439461;28;20072;-58
2024/03/02 01:36:19;;;;;;;1.37;0.40;;;;;;;17.36;50.99;99746.06;10439540;28;20864;-58
2024/03/02 01:41:20;;;;;;;1.00;0.40;;;;;;;17.40;51.05;99733.59;10449267;28;20283;-58
2024/03/02 01:46:20;;;;;;;1.30;0.43;;;;;;;17.36;51.18;99738.00;10446815;28;20642;-58
2024/03/02 01:51:21;;;;;;;0.90;0.50;;;;;;;17.41;50.92;99734.41;10453288;28;20267;-58
2024/03/02 01:56:21;;;;;;;1.60;0.98;;;;;;;17.41;50.07;99724.50;10444399;28;20977;-58
2024/03/02 02:01:22;;;;;;;1.00;0.40;;;;;;;17.38;51.57;99725.09;10451440;28;20032;-59
2024/03/02 02:06:22;;;;;;;1.10;0.50;;;;;;;17.41;50.98;99740.56;10456112;28;20029;-58
2024/03/02 02:11:23;;;;;;;0.75;0.45;;;;;;;17.38;49.96;99732.34;10443649;28;20411;-59
2024/03/02 02:16:23;;;;;;;0.90;0.30;;;;;;;17.39;50.95;99718.63;10448602;28;20029;-58
2024/03/02 02:21:23;;;;;;;1.33;0.50;;;;;;;17.39;51.65;99724.00;10456434;28;20025;-58
2024/03/02 02:26:24;;;;;;;2.13;0.60;;;;;;;17.36;50.80;99708.53;10456687;28;20287;-58
2024/03/02 02:31:24;;;;;;;1.25;0.50;;;;;;;17.41;50.50;99723.69;10454821;28;20271;-58
2024/03/02 02:36:25;;;;;;;1.43;0.40;;;;;;;17.40;50.69;99725.56;10456302;28;20025;-58
2024/03/02 02:41:25;;;;;;;0.77;0.30;;;;;;;17.38;51.67;99741.16;10455602;28;20279;-58
2024/03/02 02:46:25;;;;;;;0.40;0.30;;;;;;;17.41;50.62;99721.81;10455860;28;20287;-58
2024/03/02 02:51:26;;;;;;;0.70;0.37;;;;;;;17.40;51.35;99719.41;10454281;28;20753;-58
2024/03/02 02:56:26;;;;;;;0.65;0.40;;;;;;;17.42;50.62;99725.28;10454045;28;20278;-58
2024/03/02 03:01:26;;;;;;;0.87;0.23;;;;;;;17.44;49.91;99729.22;10454369;28;20021;-58
2024/03/02 03:06:27;;;;;;;1.45;0.40;;;;;;;17.41;50.52;99727.16;10455105;28;20298;-58
2024/03/02 03:11:27;;;;;;;0.60;0.40;;;;;;;17.40;50.50;99735.50;10445294;28;20530;-58
2024/03/02 03:16:27;;;;;;;1.23;0.30;;;;;;;17.41;50.81;99726.38;10442577;28;20317;-58
2024/03/02 03:21:28;;;;;;;0.68;0.22;;;;;;;17.41;51.50;99734.41;10444897;28;20025;-57
2024/03/02 03:26:28;;;;;;;1.00;0.30;;;;;;;17.44;50.15;99756.03;10435296;28;20102;-58
2024/03/02 03:31:29;;;;;;;0.65;0.38;;;;;;;17.42;51.11;99747.50;10453665;28;20264;-58
2024/03/02 03:36:29;;;;;;;1.45;0.40;;;;;;;17.40;51.46;99757.72;10451493;28;20792;-57
2024/03/02 03:41:30;;;;;;;0.33;0.20;;;;;;;17.42;50.09;99754.75;10443686;28;20075;-59
2024/03/02 03:46:30;;;;;;;0.33;0.20;;;;;;;17.41;50.15;99762.00;10453538;28;20279;-59
2024/03/02 03:51:30;;;;;;;0.93;0.40;;;;;;;17.43;50.51;99773.19;10450882;28;20291;-58
2024/03/02 03:56:31;;;;;;;4.97;0.30;;;;;;;17.43;50.38;99765.16;10439956;28;20291;-59
2024/03/02 04:01:34;;;;;;;0.20;0.17;;;;;;;17.41;50.00;99755.84;10453089;28;20287;-58
2024/03/02 04:06:34;;;;;;;1.70;0.30;;;;;;;17.44;50.60;99768.63;10452427;28;20294;-58
2024/03/02 04:11:34;;;;;;;0.50;0.20;;;;;;;17.43;50.41;99780.44;10447641;28;20048;-58
2024/03/02 04:16:35;;;;;;;0.68;0.20;;;;;;;17.41;51.30;99772.72;10449472;28;20057;-58
2024/03/02 04:21:35;;;;;;;0.60;0.25;;;;;;;17.42;50.11;99774.31;10451934;28;20029;-58
2024/03/02 04:26:35;;;;;;;0.60;0.30;;;;;;;17.41;51.22;99771.94;10442679;28;20377;-58
2024/03/02 04:31:36;;;;;;;2.37;0.50;;;;;;;17.41;50.16;99786.13;10450501;28;20275;-59
2024/03/02 04:36:36;;;;;;;0.50;0.20;;;;;;;17.42;50.86;99774.31;10443947;28;20284;-59
2024/03/02 04:41:37;;;;;;;0.88;0.20;;;;;;;17.40;51.10;99783.72;10447426;28;20289;-59
2024/03/02 04:46:37;;;;;;;0.20;0.13;;;;;;;17.42;50.87;99787.69;10451083;28;20036;-59
2024/03/02 04:51:37;;;;;;;0.50;0.20;;;;;;;17.43;50.05;99788.50;10450930;28;20469;-58
2024/03/02 04:56:44;;;;;;;0.47;0.20;;;;;;;17.39;50.26;99785.63;10450688;28;20353;-59
2024/03/02 05:01:45;;;;;;;0.57;0.20;;;;;;;17.44;49.72;99790.84;10441216;28;20370;-58
2024/03/02 05:06:51;;;;;;;0.85;0.30;;;;;;;17.43;50.14;99796.53;10448612;28;20315;-57
2024/03/02 05:17:11;;;;;;;0.57;0.20;;;;;;;17.40;49.86;99805.94;10444830;28;20040;-60
2024/03/02 05:22:11;;;;;;;0.25;0.20;;;;;;;17.38;49.52;99805.47;10443748;28;20385;-59
2024/03/02 05:27:11;;;;;;;1.50;0.20;;;;;;;17.40;50.21;99810.53;10446757;28;20041;-59
2024/03/02 05:32:11;;;;;;;0.20;0.10;;;;;;;17.40;49.86;99819.34;10447981;28;20298;-59
2024/03/02 05:37:12;;;;;;;0.23;0.10;;;;;;;17.37;50.59;99822.66;10440612;28;20290;-59
2024/03/02 05:42:12;;;;;;;1.35;0.28;;;;;;;17.39;50.27;99825.03;10447622;28;20301;-59
2024/03/02 05:47:12;;;;;;;0.50;0.20;;;;;;;17.37;49.87;99822.66;10449113;28;20025;-59
2024/03/02 05:52:13;;;;;;;0.28;0.20;;;;;;;17.35;50.36;99837.47;10449491;28;20279;-60
2024/03/02 05:57:16;;;;;;;1.53;0.20;;;;;;;17.40;50.58;99840.78;10439273;28;20051;-59
2024/03/02 06:02:17;;;;;;;0.65;0.20;;;;;;;17.38;49.34;99832.28;10443062;28;20282;-59
2024/03/02 06:07:17;;;;;;;0.37;0.10;;;;;;;17.41;50.07;99844.28;10444642;28;20025;-58
2024/03/02 06:12:18;;;;;;;5.37;0.60;;;;;;;17.33;49.76;99845.81;10448673;28;20295;-57
2024/03/02 06:17:19;;;;;;;6.28;0.93;;;;;;;17.36;50.11;99844.41;10447466;28;20267;-61
2024/03/02 06:22:19;;;;;;;14.30;2.25;;;;;;;17.46;51.43;99844.16;10432447;28;20055;-60
2024/03/02 06:27:19;;;;;;;24.02;1.63;;;;;;;17.63;52.87;99851.44;10439113;28;20116;-59
2024/03/02 06:32:20;;;;;;;11.00;1.00;;;;;;;17.67;53.22;99852.44;10441769;28;20024;-60
2024/03/02 06:37:20;;;;;;;5.75;0.75;;;;;;;17.64;51.92;99855.72;10456245;28;20029;-59
2024/03/02 06:42:21;;;;;;;12.50;1.35;;;;;;;17.61;52.24;99857.13;10453728;28;20029;-59
2024/03/02 06:47:21;;;;;;;9.40;0.83;;;;;;;17.48;52.69;99866.06;10454929;28;20033;-58
2024/03/02 06:52:22;;;;;;;7.10;1.80;;;;;;;17.35;51.29;99866.94;10450386;28;20651;-59
2024/03/02 06:57:24;;;;;;;8.90;1.27;;;;;;;17.37;52.19;99860.16;10449544;28;20283;-60
2024/03/02 07:02:27;;;;;;;9.68;1.90;;;;;;;17.34;53.58;99862.69;10454808;28;20533;-60
2024/03/02 07:07:28;;;;;;;11.73;1.42;;;;;;;17.28;52.06;99869.25;10453366;28;20033;-59
2024/03/02 07:12:28;;;;;;;9.73;1.23;;;;;;;17.24;52.66;99875.22;10452259;28;20516;-59
2024/03/02 07:17:29;;;;;;;11.18;0.93;;;;;;;17.27;52.27;99886.44;10453588;28;20287;-59
2024/03/02 07:22:29;;;;;;;11.88;1.65;;;;;;;17.19;51.82;99885.31;10454108;28;20031;-60
2024/03/02 07:27:31;;;;;;;8.55;2.42;;;;;;;17.18;52.68;99899.78;10452208;28;20030;-61
2024/03/02 07:32:31;;;;;;;8.65;1.50;;;;;;;17.16;51.97;99896.59;10451987;28;20060;-61
2024/03/02 07:37:32;;;;;;;6.57;1.15;;;;;;;17.18;52.90;99897.13;10450809;28;20028;-61
2024/03/02 07:42:32;;;;;;;5.97;1.47;;;;;;;17.24;52.53;99906.59;10452907;28;20032;-62
2024/03/02 07:47:36;;;;;;;4.40;0.93;;;;;;;17.29;52.54;99909.16;10428946;28;20789;-61
2024/03/02 07:52:36;;;;;;;9.55;0.80;;;;;;;17.23;52.16;99913.84;10435437;28;20336;-60
2024/03/02 07:57:36;;;;;;;5.27;0.97;;;;;;;17.21;52.49;99924.06;10452595;28;20086;-61
2024/03/02 08:02:37;;;;;;;8.13;1.08;;;;;;;17.17;53.29;99904.38;10453045;28;20332;-61
2024/03/02 08:07:37;;;;;;;5.43;1.42;;;;;;;17.11;53.40;99910.94;10452256;28;20397;-59
2024/03/02 08:12:37;;;;;;;6.25;1.25;;;;;;;17.16;52.92;99913.47;10451678;28;20762;-60
2024/03/02 08:17:44;;;;;;;5.80;1.30;;;;;;;17.19;52.21;99918.25;10451751;28;20064;-61
2024/03/02 08:22:45;;;;;;;4.38;1.08;;;;;;;17.18;50.98;99924.69;10450489;28;20005;-61
2024/03/02 08:27:45;;;;;;;9.32;2.15;;;;;;;17.20;51.77;99925.19;10451336;28;20044;-63
2024/03/02 08:32:47;;;;;;;6.93;1.43;;;;;;;17.23;52.07;99927.25;10451456;28;20025;-63
2024/03/02 08:37:47;;;;;;;11.75;1.70;;;;;;;17.19;50.94;99930.84;10450263;28;20747;-62
2024/03/02 08:42:47;;;;;;;7.85;1.77;;;;;;;17.17;49.87;99925.78;10450494;28;20021;-62
2024/03/02 08:47:48;;;;;;;6.80;1.23;;;;;;;17.17;50.12;99923.13;10426139;28;20032;-60
2024/03/02 08:52:48;;;;;;;9.63;1.40;;;;;;;17.20;50.00;99933.22;10450695;28;20309;-59
2024/03/02 08:57:50;;;;;;;5.23;0.73;;;;;;;17.24;49.90;99936.06;10449817;28;20025;-59
2024/03/02 09:02:50;;;;;;;3.65;0.90;;;;;;;17.34;50.11;99948.44;10447753;28;20302;-59
2024/03/02 09:07:51;;;;;;;6.47;1.23;;;;;;;17.41;50.76;99949.59;10449161;28;20465;-59
2024/03/02 09:12:51;;;;;;;20.17;2.00;;;;;;;17.32;51.02;99938.03;10448322;28;20084;-58
2024/03/02 09:17:51;;;;;;;7.53;1.30;;;;;;;17.40;50.35;99947.19;10450115;28;20314;-59
2024/03/02 09:22:52;;;;;;;15.50;2.07;;;;;;;17.24;51.51;99944.09;10448707;28;20486;-60
2024/03/02 09:27:52;;;;;;;8.67;1.67;;;;;;;17.22;51.73;99957.81;10448186;28;20294;-59
2024/03/02 09:32:52;;;;;;;9.90;1.67;;;;;;;17.20;51.97;99951.19;10448362;28;20283;-59
2024/03/02 09:37:53;;;;;;;12.17;2.00;;;;;;;17.21;51.86;99942.84;10448563;28;20098;-60
2024/03/02 09:42:54;;;;;;;5.60;1.70;;;;;;;17.18;51.92;99934.63;10448756;28;20996;-60
2024/03/02 09:47:54;;;;;;;7.50;1.52;;;;;;;17.15;51.98;99938.69;10449086;28;20311;-60
2024/03/02 09:52:55;;;;;;;9.93;1.40;;;;;;;17.16;51.65;99942.94;10449105;28;20179;-60
2024/03/02 09:57:56;;;;;;;9.65;1.90;;;;;;;17.16;52.09;99944.81;10447974;28;21030;-59
2024/03/02 10:02:58;;;;;;;15.43;3.67;;;;;;;17.16;51.39;99952.84;10448300;28;20036;-59
2024/03/02 10:08:02;;;;;;;9.95;1.88;;;;;;;17.17;52.11;99957.94;10452373;28;20112;-59
2024/03/02 10:13:07;;;;;;;6.47;2.05;;;;;;;17.19;52.96;99950.38;10456597;28;20041;-59
2024/03/02 10:18:11;;;;;;;7.22;1.10;;;;;;;17.20;52.75;99943.13;10455342;28;20040;-59
2024/03/02 10:23:16;;;;;;;6.28;1.65;;;;;;;17.22;52.77;99954.34;10455120;28;20035;-59
2024/03/02 10:28:17;;;;;;;7.18;1.55;;;;;;;17.22;52.45;99943.63;10437179;28;20056;-59
2024/03/02 10:33:18;;;;;;;4.88;1.20;;;;;;;17.22;52.46;99936.38;10455960;28;20029;-60
2024/03/02 10:38:22;;;;;;;9.45;1.65;;;;;;;17.21;52.64;99936.69;10454923;28;20041;-60
2024/03/02 10:43:22;;;;;;;8.60;1.45;;;;;;;17.22;51.33;99928.34;10454747;28;20074;-60
2024/03/02 10:48:25;;;;;;;5.03;1.27;;;;;;;17.24;50.98;99911.94;10451614;28;20094;-59
2024/03/02 10:53:26;;;;;;;12.95;1.73;;;;;;;17.27;51.59;99907.88;10452313;28;20021;-61
2024/03/02 10:58:26;;;;;;;4.82;1.40;;;;;;;17.27;52.06;99911.34;10452276;28;20455;-60
2024/03/02 11:03:27;;;;;;;9.25;2.33;;;;;;;17.25;52.04;99902.81;10450904;28;20512;-59
2024/03/02 11:08:28;;;;;;;8.20;1.58;;;;;;;17.28;52.22;99904.88;10449898;28;20538;-59
2024/03/02 11:13:33;;;;;;;10.75;1.38;;;;;;;17.32;51.34;99903.19;10450860;28;20412;-59
2024/03/02 11:18:34;;;;;;;6.78;1.80;;;;;;;17.35;52.21;99899.09;10448484;28;20567;-59
2024/03/02 11:23:37;;;;;;;5.35;1.63;;;;;;;17.37;51.90;99908.41;10449489;28;20020;-60
2024/03/02 11:28:37;;;;;;;10.07;1.65;;;;;;;17.38;51.72;99906.50;10451100;28;20091;-59
2024/03/02 11:33:38;;;;;;;10.60;1.40;;;;;;;17.36;52.24;99906.03;10450982;28;20142;-57
2024/03/02 11:38:38;;;;;;;17.23;1.75;;;;;;;17.40;52.10;99898.97;10449652;28;20279;-58
2024/03/02 11:43:39;;;;;;;14.05;2.17;;;;;;;17.43;51.76;99898.38;10448825;28;20025;-58
2024/03/02 11:48:40;;;;;;;25.88;4.15;;;;;;;17.41;52.48;99889.84;10449444;28;20032;-59
2024/03/02 11:53:42;;;;;;;14.77;2.38;;;;;;;17.44;52.92;99887.34;10451287;28;20021;-57
2024/03/02 11:58:43;;;;;;;12.85;1.60;;;;;;;17.45;53.43;99878.19;10450228;28;20025;-57
2024/03/02 12:03:44;;;;;;;11.02;2.25;;;;;;;17.39;53.04;99886.66;10448478;28;20017;-58
2024/03/02 12:08:44;;;;;;;11.27;2.17;;;;;;;17.34;52.98;99876.88;10449246;28;20103;-58
2024/03/02 12:13:54;;;;;;;15.52;2.63;;;;;;;17.31;51.97;99877.50;10447695;28;20530;-58
2024/03/02 12:18:55;;;;;;;7.57;1.33;;;;;;;17.30;51.57;99867.88;10445081;28;20033;-57
2024/03/02 12:23:55;;;;;;;9.02;1.55;;;;;;;17.25;51.32;99857.28;10446267;28;20032;-58
2024/03/02 12:28:56;;;;;;;6.87;1.50;;;;;;;17.22;51.24;99858.69;10446492;28;20036;-58
2024/03/02 12:33:56;;;;;;;13.60;1.63;;;;;;;17.20;51.53;99858.19;10446553;28;20283;-58
2024/03/02 12:38:56;;;;;;;6.13;2.00;;;;;;;17.16;52.89;99859.91;10448194;28;20020;-58
2024/03/02 12:43:57;;;;;;;4.63;1.05;;;;;;;17.18;52.92;99848.91;10448453;28;20487;-58
2024/03/02 12:48:58;;;;;;;5.67;1.63;;;;;;;17.19;51.70;99845.13;10444973;28;20040;-58
2024/03/02 12:53:59;;;;;;;5.35;1.10;;;;;;;17.21;52.27;99845.59;10444909;28;20873;-58
2024/03/02 12:59:00;;;;;;;6.30;1.13;;;;;;;17.18;51.19;99830.94;10439961;28;20024;-59
2024/03/02 13:04:00;;;;;;;9.50;1.77;;;;;;;17.17;51.73;99832.03;10445810;28;20021;-58
2024/03/02 13:09:00;;;;;;;8.13;1.60;;;;;;;17.21;50.69;99830.31;10447123;28;20094;-59
2024/03/02 13:14:01;;;;;;;5.15;1.48;;;;;;;17.18;50.82;99819.44;10447851;28;20036;-59
2024/03/02 13:19:02;;;;;;;7.07;1.45;;;;;;;17.21;51.87;99821.50;10447844;28;20025;-59
2024/03/02 13:24:03;;;;;;;5.95;1.10;;;;;;;17.21;50.37;99821.50;10447808;28;20033;-59
2024/03/02 13:29:03;;;;;;;7.63;1.45;;;;;;;17.19;50.50;99811.09;10446936;28;20106;-59
2024/03/02 13:34:04;;;;;;;14.93;1.63;;;;;;;17.23;51.04;99798.66;10447512;28;20017;-58
2024/03/02 13:39:10;;;;;;;7.75;1.50;;;;;;;17.22;50.69;99798.97;10444647;28;20272;-58
2024/03/02 13:44:11;;;;;;;11.73;1.40;;;;;;;17.24;50.96;99788.72;10445124;28;20044;-60
2024/03/02 13:49:11;;;;;;;9.18;1.30;;;;;;;17.26;50.75;99786.50;10446235;28;20566;-59
2024/03/02 13:54:12;;;;;;;6.15;2.05;;;;;;;17.23;51.43;99785.25;10453358;28;20357;-58
2024/03/02 13:59:12;;;;;;;9.32;2.33;;;;;;;17.28;51.49;99770.13;10453269;28;20040;-58
2024/03/02 14:04:13;;;;;;;8.63;1.42;;;;;;;17.28;50.35;99780.84;10454777;28;20024;-59
2024/03/02 14:09:13;;;;;;;6.10;1.30;;;;;;;17.27;50.73;99774.69;10453818;28;20121;-58
2024/03/02 14:14:13;;;;;;;7.60;1.42;;;;;;;17.27;51.51;99780.06;10454293;28;20037;-58
2024/03/02 14:19:14;;;;;;;5.80;1.00;;;;;;;17.29;51.13;99766.38;10454239;28;20432;-57
2024/03/02 14:24:14;;;;;;;7.13;1.30;;;;;;;17.30;51.67;99757.22;10447038;28;20075;-58
2024/03/02 14:29:14;;;;;;;6.07;1.50;;;;;;;17.28;50.98;99754.84;10452265;28;20035;-57
2024/03/02 14:34:15;;;;;;;5.35;2.03;;;;;;;17.28;51.27;99751.38;10450566;28;20025;-58
2024/03/02 14:39:15;;;;;;;12.52;2.25;;;;;;;17.30;50.41;99750.00;10450238;28;20036;-57
2024/03/02 14:44:17;;;;;;;8.48;1.60;;;;;;;17.34;50.58;99736.75;10451320;28;20024;-58
2024/03/02 14:49:17;;;;;;;4.25;1.38;;;;;;;17.39;50.08;99725.88;10450790;28;20035;-58
2024/03/02 14:54:18;;;;;;;6.97;1.93;;;;;;;17.36;50.14;99731.88;10447761;28;20024;-59
2024/03/02 14:59:19;;;;;;;7.63;1.40;;;;;;;17.36;50.77;99737.22;10451803;28;20771;-58
2024/03/02 15:04:19;;;;;;;4.70;1.13;;;;;;;17.34;51.03;99734.84;10450228;28;20108;-58
2024/03/02 15:09:20;;;;;;;5.20;1.10;;;;;;;17.29;50.10;99734.22;10449967;28;20028;-57
2024/03/02 15:14:20;;;;;;;2.50;1.10;;;;;;;17.29;49.81;99736.91;10450645;28;20033;-58
2024/03/02 15:19:20;;;;;;;4.25;1.58;;;;;;;17.35;50.73;99733.75;10450681;28;20283;-59
2024/03/02 15:24:21;;;;;;;4.33;2.03;;;;;;;17.48;49.89;99727.50;10449042;28;20009;-57
2024/03/02 15:29:24;;;;;;;5.53;1.55;;;;;;;17.61;50.25;99723.09;10448895;28;20682;-59
2024/03/02 15:34:24;;;;;;;3.45;1.50;;;;;;;17.69;49.47;99713.53;10447667;28;20028;-58
2024/03/02 15:39:27;;;;;;;8.70;2.40;;;;;;;17.64;50.81;99725.16;10448216;28;20515;-56
2024/03/02 15:44:27;;;;;;;5.43;2.15;;;;;;;17.73;50.67;99714.47;10448343;28;20496;-58
2024/03/02 15:49:29;;;;;;;7.93;2.37;;;;;;;17.83;51.71;99719.53;10449671;28;20029;-59
2024/03/02 15:54:29;;;;;;;4.90;2.50;;;;;;;17.83;50.41;99723.00;10448555;28;20272;-59
2024/03/02 15:59:30;;;;;;;5.28;3.10;;;;;;;17.87;50.26;99717.78;10442699;28;20516;-59
2024/03/02 16:04:30;;;;;;;7.20;4.57;;;;;;;17.94;50.65;99720.00;10448214;28;20436;-59
2024/03/02 16:09:31;;;;;;;6.10;5.50;;;;;;;17.95;51.15;99714.34;10448145;28;20299;-60
2024/03/02 16:14:31;;;;;;;6.70;6.15;;;;;;;17.99;50.06;99720.63;10447814;28;20279;-59
2024/03/02 16:19:31;;;;;;;4.32;3.92;;;;;;;18.04;50.96;99707.09;10447746;28;20055;-59
2024/03/02 16:24:32;;;;;;;7.88;4.93;;;;;;;18.14;54.46;99699.81;10448036;28;20028;-59
2024/03/02 16:29:33;;;;;;;8.17;4.10;;;;;;;18.08;53.04;99696.50;10448050;28;20047;-58
2024/03/02 16:34:33;;;;;;;6.93;3.03;;;;;;;18.19;54.47;99694.28;10449296;28;20306;-60
2024/03/02 16:39:33;;;;;;;8.00;3.90;;;;;;;18.28;55.06;99693.19;10449715;28;20028;-59
2024/03/02 16:44:34;;;;;;;5.90;3.73;;;;;;;18.30;55.13;99696.31;10448810;28;20627;-59
2024/03/02 16:49:35;;;;;;;6.22;3.65;;;;;;;18.39;56.77;99704.38;10448837;28;20294;-59
2024/03/02 16:54:35;;;;;;;9.40;3.88;;;;;;;18.41;56.17;99694.09;10447669;28;20471;-59
2024/03/02 16:59:36;;;;;;;9.63;4.20;;;;;;;18.50;57.65;99710.19;10448853;28;20029;-57
2024/03/02 17:04:37;;;;;;;9.68;3.88;;;;;;;18.42;57.59;99699.16;10448384;28;20017;-59
2024/03/02 17:09:37;;;;;;;5.80;3.35;;;;;;;18.29;56.52;99688.59;10447494;28;20032;-57
2024/03/02 17:14:37;;;;;;;6.18;3.33;;;;;;;18.26;56.78;99695.41;10445438;28;20025;-57
2024/03/02 17:19:37;;;;;;;4.87;3.17;;;;;;;18.21;56.33;99708.97;10445792;28;20082;-58
2024/03/02 17:24:38;;;;;;;8.33;3.00;;;;;;;18.10;56.61;99711.16;10445907;28;20306;-58
2024/03/02 17:29:38;;;;;;;4.35;2.65;;;;;;;17.99;56.49;99711.81;10446180;28;20275;-57
2024/03/02 17:34:38;;;;;;;5.07;3.23;;;;;;;17.91;55.86;99726.03;10446761;28;20039;-56
2024/03/02 17:39:39;;;;;;;5.47;2.47;;;;;;;17.80;56.87;99726.31;10447326;28;20836;-58
2024/03/02 17:44:39;;;;;;;4.63;3.07;;;;;;;17.78;56.11;99733.09;10446536;28;20301;-56
2024/03/02 17:49:39;;;;;;;5.27;2.43;;;;;;;17.77;56.66;99735.00;10446401;28;20310;-58
2024/03/02 17:54:40;;;;;;;6.78;2.50;;;;;;;17.73;56.14;99735.91;10442732;28;20280;-57
2024/03/02 17:59:43;;;;;;;4.55;2.17;;;;;;;17.69;56.35;99737.66;10443407;28;20082;-58
2024/03/02 18:04:43;;;;;;;6.72;2.35;;;;;;;17.65;55.76;99736.69;10443133;28;20032;-57
2024/03/02 18:09:44;;;;;;;4.33;2.10;;;;;;;17.63;56.58;99733.50;10442591;28;20032;-56
2024/03/02 18:14:45;;;;;;;7.47;2.17;;;;;;;17.66;55.42;99735.59;10441713;28;20475;-56
2024/03/02 18:19:45;;;;;;;9.30;2.17;;;;;;;17.60;56.00;99742.97;10441950;28;20063;-55
2024/03/02 18:24:45;;;;;;;12.13;2.37;;;;;;;17.63;55.47;99738.88;10441799;28;20186;-58
2024/03/02 18:29:46;;;;;;;10.52;2.20;;;;;;;17.66;55.07;99740.94;10447740;28;20311;-57
2024/03/02 18:34:47;;;;;;;8.65;2.55;;;;;;;17.63;56.56;99736.97;10449757;28;20712;-56
2024/03/02 18:39:48;;;;;;;8.43;2.22;;;;;;;17.64;56.71;99738.56;10450063;28;20074;-57
2024/03/02 18:44:49;;;;;;;8.57;2.40;;;;;;;17.64;55.89;99732.41;10447885;28;20028;-58
2024/03/02 18:49:50;;;;;;;8.05;1.92;;;;;;;17.54;55.96;99736.97;10449593;28;20033;-57
2024/03/02 18:54:50;;;;;;;15.73;2.35;;;;;;;17.53;55.30;99738.06;10448089;28;20016;-57
2024/03/02 18:59:52;;;;;;;14.70;2.17;;;;;;;17.53;56.00;99742.66;10449232;28;20524;-58
2024/03/02 19:04:52;;;;;;;9.20;1.98;;;;;;;17.48;56.05;99732.84;10449070;28;20295;-56
2024/03/02 19:09:52;;;;;;;10.18;2.38;;;;;;;17.47;56.75;99733.16;10448785;28;20116;-57
2024/03/02 19:14:52;;;;;;;8.25;2.55;;;;;;;17.54;55.61;99728.94;10447392;28;20037;-57
2024/03/02 19:19:53;;;;;;;19.00;4.23;;;;;;;17.57;55.62;99726.72;10448326;28;20021;-56
2024/03/02 19:24:54;;;;;;;5.93;1.67;;;;;;;17.58;55.55;99726.41;10447555;28;20291;-57
2024/03/02 19:29:56;;;;;;;8.57;2.35;;;;;;;17.53;55.30;99722.00;10440742;28;20299;-57
2024/03/02 19:34:57;;;;;;;9.10;2.65;;;;;;;17.50;55.04;99725.28;10436847;28;20067;-56
2024/03/02 19:39:57;;;;;;;10.35;1.88;;;;;;;17.51;55.20;99715.34;10435816;28;20526;-58
2024/03/02 19:44:57;;;;;;;6.60;1.70;;;;;;;17.50;55.27;99711.88;10439564;28;20028;-56
2024/03/02 19:49:59;;;;;;;4.93;1.67;;;;;;;17.50;56.26;99709.19;10435478;28;20295;-56
2024/03/02 19:55:01;;;;;;;9.65;2.03;;;;;;;17.37;55.71;99701.28;10446106;28;20294;-57
2024/03/02 20:00:01;;;;;;;9.65;2.67;;;;;;;17.34;55.49;99705.38;10446589;28;20040;-56
2024/03/02 20:05:02;;;;;;;9.70;2.92;;;;;;;17.33;55.82;99703.03;10433824;28;20021;-57
2024/03/02 20:10:06;;;;;;;8.07;1.73;;;;;;;17.32;57.11;99693.41;10424405;28;20029;-58
2024/03/02 20:15:09;;;;;;;5.95;1.60;;;;;;;17.32;56.26;99680.81;10431430;28;20049;-57
2024/03/02 20:20:12;;;;;;;4.50;1.50;;;;;;;17.36;56.78;99684.44;10440016;28;20132;-58
2024/03/02 20:25:15;;;;;;;9.32;2.35;;;;;;;17.32;56.89;99678.13;10445718;28;20104;-58
2024/03/02 20:30:15;;;;;;;4.03;1.27;;;;;;;17.34;55.11;99683.94;10445049;28;20578;-57
2024/03/02 20:35:16;;;;;;;2.50;1.07;;;;;;;17.34;55.41;99681.28;10448005;28;20025;-58
2024/03/02 20:40:18;;;;;;;4.88;1.60;;;;;;;17.34;55.46;99685.84;10449469;28;20285;-58
2024/03/02 20:45:19;;;;;;;8.68;1.42;;;;;;;17.34;55.17;99691.19;10448770;28;20029;-57
2024/03/02 20:50:19;;;;;;;4.28;1.27;;;;;;;17.34;54.70;99683.94;10448370;28;20036;-57
2024/03/02 20:55:20;;;;;;;5.33;1.67;;;;;;;17.34;54.18;99691.19;10448323;28;20017;-58
2024/03/02 21:00:20;;;;;;;2.77;1.30;;;;;;;17.33;55.59;99703.81;10447437;28;20283;-57
2024/03/02 21:05:20;;;;;;;3.20;0.98;;;;;;;17.35;54.85;99709.66;10448160;28;20291;-57
2024/03/02 21:10:21;;;;;;;4.17;1.53;;;;;;;17.34;55.01;99713.44;10447904;28;20119;-58
2024/03/02 21:15:21;;;;;;;2.63;1.10;;;;;;;17.36;55.50;99715.78;10447786;28;20291;-58
2024/03/02 21:20:21;;;;;;;3.33;1.15;;;;;;;17.38;54.36;99719.72;10448451;28;20279;-57
2024/03/02 21:25:22;;;;;;;4.85;1.33;;;;;;;17.40;53.95;99730.91;10447572;28;20029;-58
2024/03/02 21:30:25;;;;;;;1.85;0.82;;;;;;;17.42;53.64;99723.38;10447885;28;20032;-58
2024/03/02 21:35:27;;;;;;;3.28;0.93;;;;;;;17.44;54.48;99728.44;10447455;28;20029;-58
2024/03/02 21:40:27;;;;;;;4.38;1.33;;;;;;;17.43;54.76;99732.22;10447651;28;20473;-56
2024/03/02 21:45:30;;;;;;;3.95;1.55;;;;;;;17.45;54.06;99725.44;10446600;28;20029;-58
2024/03/02 21:50:31;;;;;;;2.08;1.10;;;;;;;17.49;53.16;99726.38;10446719;28;20533;-56
2024/03/02 21:55:33;;;;;;;2.65;1.23;;;;;;;17.48;53.28;99719.44;10446826;28;20024;-57
2024/03/02 22:00:35;;;;;;;2.72;1.10;;;;;;;17.52;54.09;99719.59;10447012;28;20535;-57
2024/03/02 22:05:36;;;;;;;2.58;1.35;;;;;;;17.52;52.87;99720.41;10453484;28;20116;-58
2024/03/02 22:10:36;;;;;;;1.85;1.17;;;;;;;17.52;53.01;99709.69;10455138;28;20136;-57
2024/03/02 22:15:37;;;;;;;2.10;1.10;;;;;;;17.52;53.76;99720.41;10454796;28;20020;-57
2024/03/02 22:20:37;;;;;;;3.28;0.98;;;;;;;17.52;53.49;99716.91;10455046;28;20162;-58
2024/03/02 22:25:38;;;;;;;2.53;1.33;;;;;;;17.52;53.30;99724.97;10454874;28;20041;-58
2024/03/02 22:30:38;;;;;;;2.67;1.13;;;;;;;17.51;52.77;99724.16;10453853;28;20055;-57
2024/03/02 22:35:39;;;;;;;4.93;0.90;;;;;;;17.53;53.32;99718.53;10453167;28;20021;-57
2024/03/02 22:40:40;;;;;;;2.35;1.05;;;;;;;17.51;52.97;99709.97;10453870;28;20794;-58
2024/03/02 22:45:40;;;;;;;1.80;0.80;;;;;;;17.54;52.79;99714.75;10453968;28;20036;-57
2024/03/02 22:50:41;;;;;;;2.40;0.90;;;;;;;17.53;53.71;99700.56;10453592;28;20075;-57
2024/03/02 22:55:41;;;;;;;1.90;0.87;;;;;;;17.52;54.01;99709.69;10453951;28;20355;-57
2024/03/02 23:00:47;;;;;;;1.27;0.60;;;;;;;17.52;52.34;99698.16;10453287;28;20686;-57
2024/03/02 23:05:47;;;;;;;3.38;0.82;;;;;;;17.53;53.69;99708.59;10453082;28;20334;-57
2024/03/02 23:10:48;;;;;;;2.20;1.10;;;;;;;17.52;53.75;99707.03;10452949;28;20073;-57
2024/03/02 23:15:48;;;;;;;2.03;1.07;;;;;;;17.53;53.76;99705.13;10451680;28;20466;-57
2024/03/02 23:20:49;;;;;;;3.58;1.10;;;;;;;17.53;53.03;99707.81;10452798;28;20797;-57